sensor_id;sensor_type;location;lat;lon;timestamp;temperature;humidity
71254;HTU21D;59019;47.638;18.966;2022-10-31T00:03:42;12.19;100.48
71254;HTU21D;59019;47.638;18.966;2022-10-31T00:06:07;12.16;100.45
71254;HTU21D;59019;47.638;18.966;2022-10-31T00:08:33;12.18;100.56
71254;HTU21D;59019;47.638;18.966;2022-10-31T00:10:58;12.16;100.32
71254;HTU21D;59019;47.638;18.966;2022-10-31T00:13:24;12.17;100.34
71254;HTU21D;59019;47.638;18.966;2022-10-31T00:15:49;12.15;100.23
71254;HTU21D;59019;47.638;18.966;2022-10-31T00:18:15;12.12;100.32
71254;HTU21D;59019;47.638;18.966;2022-10-31T00:20:40;12.12;100.48
71254;HTU21D;59019;47.638;18.966;2022-10-31T00:23:08;12.12;100.51
71254;HTU21D;59019;47.638;18.966;2022-10-31T00:25:36;12.11;100.58
71254;HTU21D;59019;47.638;18.966;2022-10-31T00:28:03;12.11;100.56
71254;HTU21D;59019;47.638;18.966;2022-10-31T00:30:29;12.12;100.80
71254;HTU21D;59019;47.638;18.966;2022-10-31T00:32:54;12.13;100.86
71254;HTU21D;59019;47.638;18.966;2022-10-31T00:35:20;12.15;100.83
71254;HTU21D;59019;47.638;18.966;2022-10-31T00:37:45;12.13;100.88
71254;HTU21D;59019;47.638;18.966;2022-10-31T00:40:11;12.16;100.93
71254;HTU21D;59019;47.638;18.966;2022-10-31T00:42:36;12.16;101.07
71254;HTU21D;59019;47.638;18.966;2022-10-31T00:45:02;12.20;100.93
71254;HTU21D;59019;47.638;18.966;2022-10-31T00:47:28;12.19;100.70
71254;HTU21D;59019;47.638;18.966;2022-10-31T00:49:53;12.21;100.45
71254;HTU21D;59019;47.638;18.966;2022-10-31T00:52:19;12.18;100.71
71254;HTU21D;59019;47.638;18.966;2022-10-31T00:54:45;12.16;100.61
71254;HTU21D;59019;47.638;18.966;2022-10-31T00:57:11;12.11;100.48
71254;HTU21D;59019;47.638;18.966;2022-10-31T00:59:36;12.06;100.53
71254;HTU21D;59019;47.638;18.966;2022-10-31T01:02:02;12.03;100.57
71254;HTU21D;59019;47.638;18.966;2022-10-31T01:04:27;12.01;100.58
71254;HTU21D;59019;47.638;18.966;2022-10-31T01:06:53;12.02;100.30
71254;HTU21D;59019;47.638;18.966;2022-10-31T01:09:18;11.94;100.47
71254;HTU21D;59019;47.638;18.966;2022-10-31T01:11:44;11.92;100.74
71254;HTU21D;59019;47.638;18.966;2022-10-31T01:14:09;11.94;100.87
71254;HTU21D;59019;47.638;18.966;2022-10-31T01:16:35;11.96;100.93
71254;HTU21D;59019;47.638;18.966;2022-10-31T01:19:00;11.98;100.77
71254;HTU21D;59019;47.638;18.966;2022-10-31T01:21:27;11.96;100.83
71254;HTU21D;59019;47.638;18.966;2022-10-31T01:23:54;11.98;100.85
71254;HTU21D;59019;47.638;18.966;2022-10-31T01:26:25;11.99;100.88
71254;HTU21D;59019;47.638;18.966;2022-10-31T01:29:10;12.00;100.79
71254;HTU21D;59019;47.638;18.966;2022-10-31T01:31:38;11.97;100.76
71254;HTU21D;59019;47.638;18.966;2022-10-31T01:34:04;11.99;100.77
71254;HTU21D;59019;47.638;18.966;2022-10-31T01:36:35;11.96;100.70
71254;HTU21D;59019;47.638;18.966;2022-10-31T01:39:06;11.96;100.77
71254;HTU21D;59019;47.638;18.966;2022-10-31T01:41:34;11.96;100.63
71254;HTU21D;59019;47.638;18.966;2022-10-31T01:47:03;11.89;101.15
71254;HTU21D;59019;47.638;18.966;2022-10-31T01:52:05;11.88;101.11
71254;HTU21D;59019;47.638;18.966;2022-10-31T01:54:34;11.88;101.33
71254;HTU21D;59019;47.638;18.966;2022-10-31T01:57:02;11.86;101.38
71254;HTU21D;59019;47.638;18.966;2022-10-31T01:59:30;11.89;101.48
71254;HTU21D;59019;47.638;18.966;2022-10-31T02:01:59;11.88;101.37
71254;HTU21D;59019;47.638;18.966;2022-10-31T02:04:25;11.90;101.25
71254;HTU21D;59019;47.638;18.966;2022-10-31T02:06:57;11.88;101.40
71254;HTU21D;59019;47.638;18.966;2022-10-31T02:09:25;11.89;101.45
71254;HTU21D;59019;47.638;18.966;2022-10-31T02:11:56;11.89;101.55
71254;HTU21D;59019;47.638;18.966;2022-10-31T02:14:24;11.92;101.48
71254;HTU21D;59019;47.638;18.966;2022-10-31T02:16:50;11.90;101.51
71254;HTU21D;59019;47.638;18.966;2022-10-31T02:19:26;11.81;101.15
71254;HTU21D;59019;47.638;18.966;2022-10-31T02:22:02;11.82;101.37
71254;HTU21D;59019;47.638;18.966;2022-10-31T02:30:10;11.83;101.54
71254;HTU21D;59019;47.638;18.966;2022-10-31T02:33:06;11.83;101.47
71254;HTU21D;59019;47.638;18.966;2022-10-31T02:35:55;11.79;101.19
71254;HTU21D;59019;47.638;18.966;2022-10-31T02:41:29;11.76;101.70
71254;HTU21D;59019;47.638;18.966;2022-10-31T02:44:02;11.77;101.74
71254;HTU21D;59019;47.638;18.966;2022-10-31T02:49:27;11.74;101.66
71254;HTU21D;59019;47.638;18.966;2022-10-31T02:51:54;11.73;101.35
71254;HTU21D;59019;47.638;18.966;2022-10-31T02:54:25;11.70;101.09
71254;HTU21D;59019;47.638;18.966;2022-10-31T02:57:00;11.69;101.35
71254;HTU21D;59019;47.638;18.966;2022-10-31T02:59:29;11.69;101.48
71254;HTU21D;59019;47.638;18.966;2022-10-31T03:13:11;11.62;101.41
71254;HTU21D;59019;47.638;18.966;2022-10-31T03:15:44;11.64;101.55
71254;HTU21D;59019;47.638;18.966;2022-10-31T03:18:15;11.62;101.36
71254;HTU21D;59019;47.638;18.966;2022-10-31T03:20:50;11.61;101.44
71254;HTU21D;59019;47.638;18.966;2022-10-31T03:23:18;11.61;101.31
71254;HTU21D;59019;47.638;18.966;2022-10-31T03:25:45;11.60;101.23
71254;HTU21D;59019;47.638;18.966;2022-10-31T03:28:12;11.60;101.21
71254;HTU21D;59019;47.638;18.966;2022-10-31T03:30:43;11.61;101.40
71254;HTU21D;59019;47.638;18.966;2022-10-31T03:33:18;11.58;101.47
71254;HTU21D;59019;47.638;18.966;2022-10-31T03:35:47;11.58;101.32
71254;HTU21D;59019;47.638;18.966;2022-10-31T03:38:15;11.57;101.48
71254;HTU21D;59019;47.638;18.966;2022-10-31T03:40:43;11.60;101.26
71254;HTU21D;59019;47.638;18.966;2022-10-31T03:43:16;11.58;101.44
71254;HTU21D;59019;47.638;18.966;2022-10-31T03:45:45;11.57;101.55
71254;HTU21D;59019;47.638;18.966;2022-10-31T03:48:13;11.61;101.60
71254;HTU21D;59019;47.638;18.966;2022-10-31T03:53:32;11.58;101.37
71254;HTU21D;59019;47.638;18.966;2022-10-31T03:56:04;11.58;101.39
71254;HTU21D;59019;47.638;18.966;2022-10-31T03:58:52;11.57;101.39
71254;HTU21D;59019;47.638;18.966;2022-10-31T04:01:22;11.56;101.54
71254;HTU21D;59019;47.638;18.966;2022-10-31T04:03:49;11.55;101.51
71254;HTU21D;59019;47.638;18.966;2022-10-31T04:06:16;11.57;101.59
71254;HTU21D;59019;47.638;18.966;2022-10-31T04:08:56;11.55;101.69
71254;HTU21D;59019;47.638;18.966;2022-10-31T04:11:25;11.56;101.86
71254;HTU21D;59019;47.638;18.966;2022-10-31T04:13:54;11.57;101.85
71254;HTU21D;59019;47.638;18.966;2022-10-31T04:16:23;11.59;101.71
71254;HTU21D;59019;47.638;18.966;2022-10-31T04:18:49;11.58;101.62
71254;HTU21D;59019;47.638;18.966;2022-10-31T04:21:15;11.58;101.82
71254;HTU21D;59019;47.638;18.966;2022-10-31T04:23:40;11.62;101.67
71254;HTU21D;59019;47.638;18.966;2022-10-31T04:26:06;11.61;101.62
71254;HTU21D;59019;47.638;18.966;2022-10-31T04:28:31;11.61;101.69
71254;HTU21D;59019;47.638;18.966;2022-10-31T04:30:59;11.64;101.62
71254;HTU21D;59019;47.638;18.966;2022-10-31T04:33:25;11.59;101.44
71254;HTU21D;59019;47.638;18.966;2022-10-31T04:35:50;11.58;101.54
71254;HTU21D;59019;47.638;18.966;2022-10-31T04:38:16;11.53;101.15
71254;HTU21D;59019;47.638;18.966;2022-10-31T04:40:41;11.52;101.47
71254;HTU21D;59019;47.638;18.966;2022-10-31T04:43:07;11.42;101.47
71254;HTU21D;59019;47.638;18.966;2022-10-31T04:45:32;11.46;101.71
71254;HTU21D;59019;47.638;18.966;2022-10-31T04:47:58;11.44;101.86
71254;HTU21D;59019;47.638;18.966;2022-10-31T04:50:23;11.45;101.98
71254;HTU21D;59019;47.638;18.966;2022-10-31T04:52:49;11.46;101.90
71254;HTU21D;59019;47.638;18.966;2022-10-31T04:55:14;11.42;101.95
71254;HTU21D;59019;47.638;18.966;2022-10-31T04:57:44;11.37;101.99
71254;HTU21D;59019;47.638;18.966;2022-10-31T05:00:11;11.38;102.39
71254;HTU21D;59019;47.638;18.966;2022-10-31T05:02:47;11.41;102.59
71254;HTU21D;59019;47.638;18.966;2022-10-31T05:05:14;11.45;102.63
71254;HTU21D;59019;47.638;18.966;2022-10-31T05:07:45;11.47;102.55
71254;HTU21D;59019;47.638;18.966;2022-10-31T05:10:16;11.45;102.17
71254;HTU21D;59019;47.638;18.966;2022-10-31T05:12:52;11.48;101.73
71254;HTU21D;59019;47.638;18.966;2022-10-31T05:15:18;11.48;101.67
71254;HTU21D;59019;47.638;18.966;2022-10-31T05:17:44;11.44;101.73
71254;HTU21D;59019;47.638;18.966;2022-10-31T05:20:12;11.45;101.58
71254;HTU21D;59019;47.638;18.966;2022-10-31T05:22:45;11.44;101.63
71254;HTU21D;59019;47.638;18.966;2022-10-31T05:25:11;11.44;101.46
71254;HTU21D;59019;47.638;18.966;2022-10-31T05:27:47;11.44;101.44
71254;HTU21D;59019;47.638;18.966;2022-10-31T05:30:16;11.33;101.67
71254;HTU21D;59019;47.638;18.966;2022-10-31T05:32:45;11.36;101.80
71254;HTU21D;59019;47.638;18.966;2022-10-31T05:35:13;11.36;101.96
71254;HTU21D;59019;47.638;18.966;2022-10-31T05:37:40;11.38;101.97
71254;HTU21D;59019;47.638;18.966;2022-10-31T05:40:07;11.25;101.60
71254;HTU21D;59019;47.638;18.966;2022-10-31T05:42:33;11.24;101.98
71254;HTU21D;59019;47.638;18.966;2022-10-31T05:44:59;11.27;102.31
71254;HTU21D;59019;47.638;18.966;2022-10-31T05:47:24;11.27;102.30
71254;HTU21D;59019;47.638;18.966;2022-10-31T05:49:50;11.24;102.19
71254;HTU21D;59019;47.638;18.966;2022-10-31T05:52:16;11.25;102.23
71254;HTU21D;59019;47.638;18.966;2022-10-31T05:54:41;11.25;102.35
71254;HTU21D;59019;47.638;18.966;2022-10-31T05:57:07;11.28;102.44
71254;HTU21D;59019;47.638;18.966;2022-10-31T05:59:32;11.24;102.31
71254;HTU21D;59019;47.638;18.966;2022-10-31T06:01:58;11.29;102.33
71254;HTU21D;59019;47.638;18.966;2022-10-31T06:04:23;11.34;102.47
71254;HTU21D;59019;47.638;18.966;2022-10-31T06:06:49;11.40;102.54
71254;HTU21D;59019;47.638;18.966;2022-10-31T06:09:14;11.45;102.38
71254;HTU21D;59019;47.638;18.966;2022-10-31T06:11:40;11.53;102.38
71254;HTU21D;59019;47.638;18.966;2022-10-31T06:14:06;11.55;102.12
71254;HTU21D;59019;47.638;18.966;2022-10-31T06:16:31;11.48;101.77
71254;HTU21D;59019;47.638;18.966;2022-10-31T06:18:57;11.52;102.01
71254;HTU21D;59019;47.638;18.966;2022-10-31T06:21:22;11.52;102.24
71254;HTU21D;59019;47.638;18.966;2022-10-31T06:23:48;11.49;102.51
71254;HTU21D;59019;47.638;18.966;2022-10-31T06:26:13;11.57;102.57
71254;HTU21D;59019;47.638;18.966;2022-10-31T06:28:39;11.61;102.57
71254;HTU21D;59019;47.638;18.966;2022-10-31T06:31:04;11.66;102.63
71254;HTU21D;59019;47.638;18.966;2022-10-31T06:33:30;11.71;102.56
71254;HTU21D;59019;47.638;18.966;2022-10-31T06:35:56;11.78;102.42
71254;HTU21D;59019;47.638;18.966;2022-10-31T06:38:21;11.86;102.16
71254;HTU21D;59019;47.638;18.966;2022-10-31T06:40:47;11.85;101.64
71254;HTU21D;59019;47.638;18.966;2022-10-31T06:43:12;11.92;101.77
71254;HTU21D;59019;47.638;18.966;2022-10-31T06:45:40;11.94;101.73
71254;HTU21D;59019;47.638;18.966;2022-10-31T06:48:06;12.00;101.46
71254;HTU21D;59019;47.638;18.966;2022-10-31T06:50:31;12.11;101.30
71254;HTU21D;59019;47.638;18.966;2022-10-31T06:52:58;12.16;101.34
71254;HTU21D;59019;47.638;18.966;2022-10-31T06:55:25;12.18;101.35
71254;HTU21D;59019;47.638;18.966;2022-10-31T07:00:16;12.18;100.45
71254;HTU21D;59019;47.638;18.966;2022-10-31T07:02:42;12.20;100.61
71254;HTU21D;59019;47.638;18.966;2022-10-31T07:05:07;12.21;100.52
71254;HTU21D;59019;47.638;18.966;2022-10-31T07:07:33;12.20;100.48
71254;HTU21D;59019;47.638;18.966;2022-10-31T07:09:58;12.18;100.54
71254;HTU21D;59019;47.638;18.966;2022-10-31T07:12:24;12.20;100.64
71254;HTU21D;59019;47.638;18.966;2022-10-31T07:14:49;12.22;100.57
71254;HTU21D;59019;47.638;18.966;2022-10-31T07:17:15;12.31;100.73
71254;HTU21D;59019;47.638;18.966;2022-10-31T07:19:41;12.32;100.73
71254;HTU21D;59019;47.638;18.966;2022-10-31T07:22:06;12.36;100.82
71254;HTU21D;59019;47.638;18.966;2022-10-31T07:24:32;12.38;100.83
71254;HTU21D;59019;47.638;18.966;2022-10-31T07:26:57;12.43;100.59
71254;HTU21D;59019;47.638;18.966;2022-10-31T07:29:23;12.40;100.49
71254;HTU21D;59019;47.638;18.966;2022-10-31T07:31:48;12.41;100.73
71254;HTU21D;59019;47.638;18.966;2022-10-31T07:34:13;12.45;100.63
71254;HTU21D;59019;47.638;18.966;2022-10-31T07:36:39;12.50;100.82
71254;HTU21D;59019;47.638;18.966;2022-10-31T07:39:04;12.50;100.45
71254;HTU21D;59019;47.638;18.966;2022-10-31T07:41:31;12.50;100.41
71254;HTU21D;59019;47.638;18.966;2022-10-31T07:43:56;12.57;100.35
71254;HTU21D;59019;47.638;18.966;2022-10-31T07:46:22;12.57;100.04
71254;HTU21D;59019;47.638;18.966;2022-10-31T07:48:47;12.60;100.04
71254;HTU21D;59019;47.638;18.966;2022-10-31T07:51:13;12.65;100.12
71254;HTU21D;59019;47.638;18.966;2022-10-31T07:53:38;12.69;100.06
71254;HTU21D;59019;47.638;18.966;2022-10-31T07:56:04;12.72;99.84
71254;HTU21D;59019;47.638;18.966;2022-10-31T07:58:30;12.79;99.51
71254;HTU21D;59019;47.638;18.966;2022-10-31T08:00:57;12.66;99.07
71254;HTU21D;59019;47.638;18.966;2022-10-31T08:03:22;12.73;99.11
71254;HTU21D;59019;47.638;18.966;2022-10-31T08:05:48;12.79;99.32
71254;HTU21D;59019;47.638;18.966;2022-10-31T08:08:14;12.87;98.93
71254;HTU21D;59019;47.638;18.966;2022-10-31T08:10:40;12.91;98.74
71254;HTU21D;59019;47.638;18.966;2022-10-31T08:13:08;12.94;99.03
71254;HTU21D;59019;47.638;18.966;2022-10-31T08:15:34;12.88;98.94
71254;HTU21D;59019;47.638;18.966;2022-10-31T08:18:02;13.00;99.16
71254;HTU21D;59019;47.638;18.966;2022-10-31T08:20:28;13.05;99.38
71254;HTU21D;59019;47.638;18.966;2022-10-31T08:23:02;13.14;99.28
71254;HTU21D;59019;47.638;18.966;2022-10-31T08:25:31;13.19;99.07
71254;HTU21D;59019;47.638;18.966;2022-10-31T08:27:57;13.25;99.03
71254;HTU21D;59019;47.638;18.966;2022-10-31T08:30:25;13.33;98.77
71254;HTU21D;59019;47.638;18.966;2022-10-31T08:33:02;13.38;98.49
71254;HTU21D;59019;47.638;18.966;2022-10-31T08:35:28;13.43;98.23
71254;HTU21D;59019;47.638;18.966;2022-10-31T08:37:55;13.41;98.19
71254;HTU21D;59019;47.638;18.966;2022-10-31T08:40:22;13.46;98.14
71254;HTU21D;59019;47.638;18.966;2022-10-31T08:42:55;13.46;98.16
71254;HTU21D;59019;47.638;18.966;2022-10-31T08:45:21;13.48;98.12
71254;HTU21D;59019;47.638;18.966;2022-10-31T08:47:46;13.48;98.09
71254;HTU21D;59019;47.638;18.966;2022-10-31T08:50:11;13.46;98.11
71254;HTU21D;59019;47.638;18.966;2022-10-31T08:52:37;13.50;98.25
71254;HTU21D;59019;47.638;18.966;2022-10-31T08:55:03;13.51;98.14
71254;HTU21D;59019;47.638;18.966;2022-10-31T08:57:28;13.52;98.05
71254;HTU21D;59019;47.638;18.966;2022-10-31T08:59:54;13.55;97.93
71254;HTU21D;59019;47.638;18.966;2022-10-31T09:02:19;13.56;97.93
71254;HTU21D;59019;47.638;18.966;2022-10-31T09:04:45;13.51;97.77
71254;HTU21D;59019;47.638;18.966;2022-10-31T09:07:10;13.15;97.81
71254;HTU21D;59019;47.638;18.966;2022-10-31T09:09:36;13.20;98.42
71254;HTU21D;59019;47.638;18.966;2022-10-31T09:12:01;13.27;98.71
71254;HTU21D;59019;47.638;18.966;2022-10-31T09:14:26;13.34;98.45
71254;HTU21D;59019;47.638;18.966;2022-10-31T09:16:52;13.33;97.97
71254;HTU21D;59019;47.638;18.966;2022-10-31T09:19:17;13.33;98.46
71254;HTU21D;59019;47.638;18.966;2022-10-31T09:21:43;13.29;98.55
71254;HTU21D;59019;47.638;18.966;2022-10-31T09:24:08;13.27;98.66
71254;HTU21D;59019;47.638;18.966;2022-10-31T09:26:34;13.34;98.92
71254;HTU21D;59019;47.638;18.966;2022-10-31T09:28:59;13.40;98.81
71254;HTU21D;59019;47.638;18.966;2022-10-31T09:31:27;13.45;98.53
71254;HTU21D;59019;47.638;18.966;2022-10-31T09:33:54;13.50;98.60
71254;HTU21D;59019;47.638;18.966;2022-10-31T09:36:20;13.52;98.09
71254;HTU21D;59019;47.638;18.966;2022-10-31T09:38:45;13.47;97.55
71254;HTU21D;59019;47.638;18.966;2022-10-31T09:44:29;13.48;97.66
71254;HTU21D;59019;47.638;18.966;2022-10-31T09:52:13;13.41;97.91
71254;HTU21D;59019;47.638;18.966;2022-10-31T09:54:52;13.32;97.78
71254;HTU21D;59019;47.638;18.966;2022-10-31T09:57:27;13.32;98.01
71254;HTU21D;59019;47.638;18.966;2022-10-31T09:59:53;13.31;98.18
71254;HTU21D;59019;47.638;18.966;2022-10-31T10:02:36;13.32;98.52
71254;HTU21D;59019;47.638;18.966;2022-10-31T10:05:05;13.40;98.58
71254;HTU21D;59019;47.638;18.966;2022-10-31T10:18:58;13.44;97.87
71254;HTU21D;59019;47.638;18.966;2022-10-31T10:21:48;13.29;97.97
71254;HTU21D;59019;47.638;18.966;2022-10-31T10:27:11;13.21;98.52
71254;HTU21D;59019;47.638;18.966;2022-10-31T10:32:33;13.25;98.13
71254;HTU21D;59019;47.638;18.966;2022-10-31T10:35:21;13.30;98.22
71254;HTU21D;59019;47.638;18.966;2022-10-31T10:37:51;13.37;98.18
71254;HTU21D;59019;47.638;18.966;2022-10-31T10:40:25;13.41;98.01
71254;HTU21D;59019;47.638;18.966;2022-10-31T10:45:55;13.47;97.72
71254;HTU21D;59019;47.638;18.966;2022-10-31T10:48:45;13.50;97.43
71254;HTU21D;59019;47.638;18.966;2022-10-31T10:51:21;13.51;97.49
71254;HTU21D;59019;47.638;18.966;2022-10-31T10:53:51;13.49;97.16
71254;HTU21D;59019;47.638;18.966;2022-10-31T10:57:14;13.52;97.03
71254;HTU21D;59019;47.638;18.966;2022-10-31T10:59:43;13.49;96.74
71254;HTU21D;59019;47.638;18.966;2022-10-31T11:02:17;13.46;96.97
71254;HTU21D;59019;47.638;18.966;2022-10-31T11:04:45;13.45;97.04
71254;HTU21D;59019;47.638;18.966;2022-10-31T11:07:12;13.44;97.09
71254;HTU21D;59019;47.638;18.966;2022-10-31T11:09:38;13.44;97.10
71254;HTU21D;59019;47.638;18.966;2022-10-31T11:12:08;13.45;97.32
71254;HTU21D;59019;47.638;18.966;2022-10-31T11:14:47;13.46;97.29
71254;HTU21D;59019;47.638;18.966;2022-10-31T11:17:25;13.46;97.23
71254;HTU21D;59019;47.638;18.966;2022-10-31T11:22:45;13.27;97.12
71254;HTU21D;59019;47.638;18.966;2022-10-31T11:25:22;13.35;97.53
71254;HTU21D;59019;47.638;18.966;2022-10-31T11:28:07;13.39;97.62
71254;HTU21D;59019;47.638;18.966;2022-10-31T11:30:44;13.44;97.70
71254;HTU21D;59019;47.638;18.966;2022-10-31T11:33:24;13.48;97.68
71254;HTU21D;59019;47.638;18.966;2022-10-31T11:35:52;13.52;97.64
71254;HTU21D;59019;47.638;18.966;2022-10-31T11:38:21;13.59;97.71
71254;HTU21D;59019;47.638;18.966;2022-10-31T11:41:03;13.62;97.44
71254;HTU21D;59019;47.638;18.966;2022-10-31T11:43:31;13.53;96.95
71254;HTU21D;59019;47.638;18.966;2022-10-31T11:45:56;13.50;97.06
71254;HTU21D;59019;47.638;18.966;2022-10-31T11:48:23;13.54;97.47
71254;HTU21D;59019;47.638;18.966;2022-10-31T11:50:52;13.54;96.77
71254;HTU21D;59019;47.638;18.966;2022-10-31T11:53:28;13.53;97.03
71254;HTU21D;59019;47.638;18.966;2022-10-31T11:56:13;13.50;96.96
71254;HTU21D;59019;47.638;18.966;2022-10-31T11:58:39;13.45;97.24
71254;HTU21D;59019;47.638;18.966;2022-10-31T12:01:05;13.43;97.36
71254;HTU21D;59019;47.638;18.966;2022-10-31T12:06:28;13.43;97.84
71254;HTU21D;59019;47.638;18.966;2022-10-31T12:08:55;13.46;97.75
71254;HTU21D;59019;47.638;18.966;2022-10-31T12:14:27;13.48;97.65
71254;HTU21D;59019;47.638;18.966;2022-10-31T12:20:00;13.48;97.56
71254;HTU21D;59019;47.638;18.966;2022-10-31T12:25:33;13.51;97.53
71254;HTU21D;59019;47.638;18.966;2022-10-31T12:48:14;13.43;97.54
71254;HTU21D;59019;47.638;18.966;2022-10-31T13:00:12;13.37;98.21
71254;HTU21D;59019;47.638;18.966;2022-10-31T13:04:58;13.37;98.14
71254;HTU21D;59019;47.638;18.966;2022-10-31T13:07:36;13.35;98.16
71254;HTU21D;59019;47.638;18.966;2022-10-31T13:10:15;13.35;98.24
71254;HTU21D;59019;47.638;18.966;2022-10-31T13:12:42;13.33;98.20
71254;HTU21D;59019;47.638;18.966;2022-10-31T13:15:18;13.20;98.28
71254;HTU21D;59019;47.638;18.966;2022-10-31T13:17:54;13.11;98.42
71254;HTU21D;59019;47.638;18.966;2022-10-31T13:20:32;13.08;98.94
71254;HTU21D;59019;47.638;18.966;2022-10-31T13:23:14;13.10;98.96
71254;HTU21D;59019;47.638;18.966;2022-10-31T13:25:46;13.16;98.84
71254;HTU21D;59019;47.638;18.966;2022-10-31T13:30:48;13.19;98.61
71254;HTU21D;59019;47.638;18.966;2022-10-31T13:33:47;13.10;98.48
71254;HTU21D;59019;47.638;18.966;2022-10-31T13:41:52;13.18;99.28
71254;HTU21D;59019;47.638;18.966;2022-10-31T13:44:22;13.15;99.16
71254;HTU21D;59019;47.638;18.966;2022-10-31T13:46:52;13.18;99.13
71254;HTU21D;59019;47.638;18.966;2022-10-31T13:52:25;13.16;98.94
71254;HTU21D;59019;47.638;18.966;2022-10-31T13:54:52;13.15;98.97
71254;HTU21D;59019;47.638;18.966;2022-10-31T13:57:42;13.06;98.68
71254;HTU21D;59019;47.638;18.966;2022-10-31T14:02:48;12.96;99.16
71254;HTU21D;59019;47.638;18.966;2022-10-31T14:05:27;12.97;99.16
71254;HTU21D;59019;47.638;18.966;2022-10-31T14:07:54;12.97;99.26
71254;HTU21D;59019;47.638;18.966;2022-10-31T14:10:37;12.99;99.19
71254;HTU21D;59019;47.638;18.966;2022-10-31T14:15:57;13.02;99.38
71254;HTU21D;59019;47.638;18.966;2022-10-31T14:18:24;13.04;99.13
71254;HTU21D;59019;47.638;18.966;2022-10-31T14:20:50;13.01;99.21
71254;HTU21D;59019;47.638;18.966;2022-10-31T14:23:34;13.00;99.16
71254;HTU21D;59019;47.638;18.966;2022-10-31T14:28:45;12.87;98.90
71254;HTU21D;59019;47.638;18.966;2022-10-31T14:34:36;12.79;99.02
71254;HTU21D;59019;47.638;18.966;2022-10-31T14:48:29;12.53;99.63
71254;HTU21D;59019;47.638;18.966;2022-10-31T14:50:59;12.56;99.61
71254;HTU21D;59019;47.638;18.966;2022-10-31T14:53:34;12.55;99.59
71254;HTU21D;59019;47.638;18.966;2022-10-31T14:56:01;12.47;99.45
71254;HTU21D;59019;47.638;18.966;2022-10-31T15:00:59;12.47;99.63
71254;HTU21D;59019;47.638;18.966;2022-10-31T15:03:34;12.49;99.91
71254;HTU21D;59019;47.638;18.966;2022-10-31T15:06:09;12.51;99.95
71254;HTU21D;59019;47.638;18.966;2022-10-31T15:08:48;12.52;99.87
71254;HTU21D;59019;47.638;18.966;2022-10-31T15:11:21;12.51;99.83
71254;HTU21D;59019;47.638;18.966;2022-10-31T15:13:58;12.49;99.97
71254;HTU21D;59019;47.638;18.966;2022-10-31T15:16:30;12.50;99.93
71254;HTU21D;59019;47.638;18.966;2022-10-31T15:19:04;12.50;99.87
71254;HTU21D;59019;47.638;18.966;2022-10-31T15:21:30;12.48;99.77
71254;HTU21D;59019;47.638;18.966;2022-10-31T15:23:58;12.41;99.06
71254;HTU21D;59019;47.638;18.966;2022-10-31T15:26:35;12.43;99.19
71254;HTU21D;59019;47.638;18.966;2022-10-31T15:29:05;12.30;99.20
71254;HTU21D;59019;47.638;18.966;2022-10-31T15:31:31;12.18;99.57
71254;HTU21D;59019;47.638;18.966;2022-10-31T15:36:49;12.22;99.77
71254;HTU21D;59019;47.638;18.966;2022-10-31T15:39:16;12.16;100.12
71254;HTU21D;59019;47.638;18.966;2022-10-31T15:41:53;12.06;101.03
71254;HTU21D;59019;47.638;18.966;2022-10-31T15:44:28;12.07;100.54
71254;HTU21D;59019;47.638;18.966;2022-10-31T15:46:59;11.98;100.17
71254;HTU21D;59019;47.638;18.966;2022-10-31T15:52:06;11.99;100.14
71254;HTU21D;59019;47.638;18.966;2022-10-31T15:54:33;11.79;100.79
71254;HTU21D;59019;47.638;18.966;2022-10-31T15:57:01;11.78;101.66
71254;HTU21D;59019;47.638;18.966;2022-10-31T15:59:28;11.81;101.58
71254;HTU21D;59019;47.638;18.966;2022-10-31T16:02:03;11.88;101.38
71254;HTU21D;59019;47.638;18.966;2022-10-31T16:04:29;11.92;100.71
71254;HTU21D;59019;47.638;18.966;2022-10-31T16:07:10;11.87;100.80
71254;HTU21D;59019;47.638;18.966;2022-10-31T16:09:37;11.89;100.88
71254;HTU21D;59019;47.638;18.966;2022-10-31T16:12:14;11.88;100.82
71254;HTU21D;59019;47.638;18.966;2022-10-31T16:14:41;11.82;100.52
71254;HTU21D;59019;47.638;18.966;2022-10-31T16:17:11;11.83;100.91
71254;HTU21D;59019;47.638;18.966;2022-10-31T16:19:47;11.56;102.89
71254;HTU21D;59019;47.638;18.966;2022-10-31T16:22:20;11.51;103.05
71254;HTU21D;59019;47.638;18.966;2022-10-31T16:24:51;11.58;102.74
71254;HTU21D;59019;47.638;18.966;2022-10-31T16:27:21;11.64;102.52
71254;HTU21D;59019;47.638;18.966;2022-10-31T16:29:50;11.69;102.06
71254;HTU21D;59019;47.638;18.966;2022-10-31T16:32:52;11.57;102.45
71254;HTU21D;59019;47.638;18.966;2022-10-31T16:35:36;11.55;102.85
71254;HTU21D;59019;47.638;18.966;2022-10-31T16:38:03;11.63;102.58
71254;HTU21D;59019;47.638;18.966;2022-10-31T16:40:29;11.61;102.44
71254;HTU21D;59019;47.638;18.966;2022-10-31T16:42:57;11.62;102.56
71254;HTU21D;59019;47.638;18.966;2022-10-31T16:45:26;11.72;102.41
71254;HTU21D;59019;47.638;18.966;2022-10-31T16:47:52;11.71;102.42
71254;HTU21D;59019;47.638;18.966;2022-10-31T16:50:25;11.41;103.54
71254;HTU21D;59019;47.638;18.966;2022-10-31T16:52:52;11.51;103.99
71254;HTU21D;59019;47.638;18.966;2022-10-31T16:55:19;11.57;103.38
71254;HTU21D;59019;47.638;18.966;2022-10-31T16:57:55;11.59;102.91
71254;HTU21D;59019;47.638;18.966;2022-10-31T17:00:23;11.70;102.59
71254;HTU21D;59019;47.638;18.966;2022-10-31T17:02:51;11.71;102.25
71254;HTU21D;59019;47.638;18.966;2022-10-31T17:05:18;11.70;102.15
71254;HTU21D;59019;47.638;18.966;2022-10-31T17:07:45;11.70;101.80
71254;HTU21D;59019;47.638;18.966;2022-10-31T17:10:12;11.70;101.62
71254;HTU21D;59019;47.638;18.966;2022-10-31T17:12:41;11.70;101.86
71254;HTU21D;59019;47.638;18.966;2022-10-31T17:15:19;11.76;101.58
71254;HTU21D;59019;47.638;18.966;2022-10-31T17:17:46;11.78;101.06
71254;HTU21D;59019;47.638;18.966;2022-10-31T17:20:23;11.70;100.89
71254;HTU21D;59019;47.638;18.966;2022-10-31T17:22:49;11.62;101.17
71254;HTU21D;59019;47.638;18.966;2022-10-31T17:25:17;11.58;101.04
71254;HTU21D;59019;47.638;18.966;2022-10-31T17:27:43;11.55;101.43
71254;HTU21D;59019;47.638;18.966;2022-10-31T17:30:11;11.54;101.60
71254;HTU21D;59019;47.638;18.966;2022-10-31T17:32:37;11.46;101.72
71254;HTU21D;59019;47.638;18.966;2022-10-31T17:35:03;11.48;101.89
71254;HTU21D;59019;47.638;18.966;2022-10-31T17:37:28;11.40;102.41
71254;HTU21D;59019;47.638;18.966;2022-10-31T17:39:54;11.31;102.86